createdAt,value
2019-02-23T08:41:45.550Z,6400.00
2019-02-23T08:42:44.890Z,6112.00
2019-02-23T08:43:44.859Z,6588.00
2019-02-23T08:44:44.826Z,6952.00
2019-02-23T08:45:44.795Z,7052.00
2019-02-23T08:46:44.764Z,7224.00
2019-02-23T08:47:45.091Z,7204.00
2019-02-23T08:48:44.721Z,7108.00
2019-02-23T08:49:44.668Z,7280.00
2019-02-23T08:50:44.635Z,7384.00
2019-02-23T08:51:44.603Z,7468.00
2019-02-23T08:52:49.226Z,7520.00
2019-02-23T08:53:44.541Z,7516.00
2019-02-23T08:54:44.511Z,7520.00
2019-02-23T08:55:44.491Z,7832.00
2019-02-23T08:56:44.660Z,7660.00
2019-02-23T08:57:44.418Z,7888.00
2019-02-23T08:58:44.386Z,7944.00
2019-02-23T08:59:44.361Z,8372.00
2019-02-23T09:00:44.327Z,8340.00
2019-02-23T09:01:44.297Z,8160.00
2019-02-23T09:02:44.265Z,8448.00
2019-02-23T09:03:44.236Z,8708.00
2019-02-23T09:04:44.202Z,8820.00
2019-02-23T09:05:44.179Z,8824.00
2019-02-23T09:06:44.147Z,8856.00
2019-02-23T09:07:44.118Z,8944.00
2019-02-23T09:08:44.215Z,5548.00
2019-02-23T09:09:44.060Z,5664.00
2019-02-23T09:10:44.027Z,5552.00
2019-02-23T09:11:43.997Z,5584.00
2019-02-23T09:12:43.970Z,5704.00
2019-02-23T09:13:43.940Z,5744.00
2019-02-23T09:14:43.911Z,5888.00
2019-02-23T09:15:43.880Z,5892.00
2019-02-23T09:16:43.850Z,5876.00
2019-02-23T09:17:43.822Z,5892.00
2019-02-23T09:18:43.789Z,5760.00
2019-02-23T09:19:43.761Z,5964.00
2019-02-23T09:20:43.729Z,6092.00
2019-02-23T09:21:43.702Z,6008.00
2019-02-23T09:22:43.674Z,6132.00
2019-02-23T09:23:43.643Z,6084.00
2019-02-23T09:24:43.615Z,6228.00
2019-02-23T09:25:43.589Z,6296.00
2019-02-23T09:26:43.559Z,6376.00
2019-02-23T09:27:43.528Z,6440.00
2019-02-23T09:28:43.503Z,6292.00
2019-02-23T09:29:43.471Z,6544.00
2019-02-23T09:30:43.444Z,6544.00
2019-02-23T09:31:43.417Z,6636.00
2019-02-23T09:32:43.386Z,6676.00
2019-02-23T09:33:43.359Z,6668.00
2019-02-23T09:34:43.327Z,6436.00
2019-02-23T09:35:43.301Z,6512.00
2019-02-23T09:36:43.272Z,6804.00
2019-02-23T09:37:43.243Z,6632.00
2019-02-23T09:38:43.216Z,6684.00
2019-02-23T09:39:43.191Z,6716.00
2019-02-23T09:40:43.159Z,6908.00
2019-02-23T09:41:43.134Z,6960.00
2019-02-23T09:42:43.104Z,7000.00
2019-02-23T09:43:43.074Z,7044.00
2019-02-23T09:44:43.051Z,7160.00
2019-02-23T09:45:43.022Z,7220.00
2019-02-23T09:46:42.939Z,7284.00
2019-02-23T09:47:42.913Z,7280.00
2019-02-23T09:48:42.885Z,7304.00
2019-02-23T09:49:42.860Z,7420.00
2019-02-23T09:50:42.836Z,7336.00
2019-02-23T09:51:42.804Z,7400.00
2019-02-23T09:52:42.778Z,7440.00
2019-02-23T09:53:42.754Z,7400.00
2019-02-23T09:54:42.727Z,7288.00
2019-02-23T09:55:42.700Z,7556.00
2019-02-23T09:56:42.673Z,7508.00
2019-02-23T09:57:42.649Z,7352.00
2019-02-23T09:58:42.621Z,7248.00
2019-02-23T09:59:42.594Z,7660.00
2019-02-23T10:00:42.569Z,7608.00
2019-02-23T10:01:42.543Z,7340.00
2019-02-23T10:02:42.517Z,7228.00
2019-02-23T10:03:42.489Z,7528.00
2019-02-23T10:04:42.466Z,7832.00
2019-02-23T10:05:42.440Z,7976.00
2019-02-23T10:06:42.421Z,8132.00
2019-02-23T10:07:42.386Z,8164.00
2019-02-23T10:08:42.360Z,8352.00
2019-02-23T10:09:42.333Z,8480.00
2019-02-23T10:10:42.314Z,8888.00
2019-02-23T10:11:42.288Z,8812.00
2019-02-23T10:12:42.258Z,8784.00
2019-02-23T10:13:42.231Z,8700.00
2019-02-23T10:14:42.206Z,8828.00
2019-02-23T10:15:42.177Z,8460.00
2019-02-23T10:16:42.156Z,8388.00
2019-02-23T10:17:42.130Z,8216.00
2019-02-23T10:18:42.104Z,8212.00
2019-02-23T10:19:42.076Z,8044.00
2019-02-23T10:20:42.052Z,8156.00
2019-02-23T10:21:42.028Z,7864.00
2019-02-23T10:22:42.059Z,7968.00
2019-02-23T10:23:42.032Z,7992.00
2019-02-23T10:24:42.008Z,8048.00
2019-02-23T10:25:41.928Z,8048.00
2019-02-23T10:26:41.900Z,8060.00
2019-02-23T10:27:41.929Z,7996.00
2019-02-23T10:28:41.853Z,7868.00
2019-02-23T10:29:41.882Z,7872.00
2019-02-23T10:30:41.856Z,7848.00
2019-02-23T10:31:41.776Z,7892.00
2019-02-23T10:32:41.806Z,7776.00
2019-02-23T10:33:47.570Z,7812.00
2019-02-23T10:34:41.754Z,7812.00
2019-02-23T10:35:41.731Z,7888.00
2019-02-23T10:36:41.705Z,7824.00
2019-02-23T10:37:41.681Z,7812.00
2019-02-23T10:38:41.657Z,7780.00
2019-02-23T10:39:41.630Z,7704.00
2019-02-23T10:40:41.608Z,7620.00
2019-02-23T10:41:41.583Z,7740.00
